الصفحة الرئيسية
METAR-TAF:

METAR-TAF

مطار :

مطار فا الدولي

تاهيتي, بولينسيا الفرنسية

دائرة عرض: 17-33S, خط طول: 149-37W, ارتفاع: 2 متر

مراقبة الطقس الحالي

تاريخ ووقت الإصدار 34 دقيقة قبل الساعة 16:00UTC
ريح 8 عقدة من الشرق, الاتجاه يتراوح بين الشمال الشرقي و الجنوب الشرقي
درجة الحرارة 27°درجة مئوية
الرطوبة 70%
ضغط 1012 hPa
الرؤية 10 كم أو أكثر
غيوم قليلة على ارتفاع 2300 قدم
غيوم مفككة على ارتفاع 30000 قدم

METAR: NTAA 231600Z 09008KT 040V130 9999 FEW023 BKN300 27/21 Q1012 NOSIG

زمن: 06:34 (16:34 UTC)

توقعات

تاريخ ووقت الإصدار 5ساعات و 34 دقيقة قبل الساعة 11:00UTC
التوقعات صالحة من23 الساعة 12 UTC إلى 24 الساعة 18 UTC
ريح 3 عقدةمن اتجاهات متغيرة
الرؤية 10 كم أو أكثر
غيوم قليلة على ارتفاع 2000 قدم
غيوم متفرقة على ارتفاع 4500 قدم
أصبح
من 23 الساعة 19 UTC إلى 23 الساعة 21 UTC
ريح 15 عقدة من الشرق/الشمال الشرقي
أصبح
من 24 الساعة 02 UTC إلى 24 الساعة 04 UTC
ريح 3 عقدةمن اتجاهات متغيرة

TAF: NTAA 231100Z 2312/2418 VRB03KT 9999 FEW020 SCT045 BECMG 2319/2321 06015KT BECMG 2402/2404 VRB03KT

أرصاد الطقس والتوقعات من أكثر من 4000 مطار (تقارير الطقس للمطار METAR والتنبؤ بالطقس بالمطارTAF).

المحطات المتاحة هي النقط الصفراء والحمراء على الخريطة.

حرك المؤشر فوق النقطة لمعرفة اسم المحطة.

ثم انقر لمعرفة أرصاد وتوقعات الطقس.

لتغيير الخارطة: اضغط على الأزرار الخضراء مع رمز الصليب الأسود للتكبير. على الزر الأخضر مع شرطة للتصغير، أو على الأسهم الخضراء للخرائط المجاورة.


METAR-TAF: